• Join FlightAware (Why Join?)
  • Login
  • US Flag 
10:38PM EDT


 

Airport Tracker/Info


-or-


 

Live Flight TrackerFlight Track Log ✈ ASQ5859 ✈ 15-Jul-2013 ✈ KBTV - KORD

Flight Track Log - Related Links

Times and Time Zones

All times are in EDT time to prevent confusion due to time zone crossing. See the ASQ5859 flight status page for this flight to view local times or setup timezone preferences in your user account.

Time Position Orientation Groundspeed Altitude Reporting Facility
EDT Latitude Longitude Course Direction KTS MPH feet Rate Location/Type
06:26PM 44.4914 -73.3103 259° West 230 265 4,300  Level Boston Center
06:27PM 44.3512 -73.4240 260° West  Level FlightAware Approximate
06:27PM 44.4739 -73.4089 256° West 230 265 6,900  Level Boston Center
06:28PM 44.3323 -73.5473 256° West  Level FlightAware Approximate
06:28PM 44.4564 -73.4986 255° West 264 304 8,600  Level Boston Center
06:29PM 44.3110 -73.6702 258° West  Level FlightAware Approximate
06:29PM 44.4367 -73.6058 256° West 274 315 10,100  Level Boston Center
06:30PM 44.2920 -73.7938 258° West  Level FlightAware Approximate
06:30PM 44.4144 -73.7306 256° West 310 357 10,700  Level Boston Center
06:31PM 44.2742 -73.9177 259° West  Level FlightAware Approximate
06:31PM 44.3858 -73.8750 255° West 345 397 11,500  Level Boston Center
06:32PM 44.3589 -74.0139 255° West 361 415 12,300 720 Climbing Boston Center
06:33PM 44.3364 -74.1381 256° West 368 423 13,000 720 Climbing Boston Center
06:34PM 44.3092 -74.2736 254° West 374 430 13,800 780 Climbing Boston Center
06:35PM 44.2839 -74.4150 256° West 374 430 14,600 900 Climbing Boston Center
06:36PM 44.2567 -74.5503 254° West 374 430 15,600 900 Climbing Boston Center
06:37PM 44.2308 -74.6914 256° West 374 430 16,400 720 Climbing Boston Center
06:38PM 44.2031 -74.8322 255° West 374 430 17,100 900 Climbing Boston Center
06:39PM 44.1753 -74.9700 254° West 374 430 18,300 1,560 Climbing Boston Center
06:40PM 44.1514 -75.1022 256° West 368 423 20,300 1,920 Climbing Boston Center
06:41PM 44.1275 -75.2225 255° West 355 409 22,200 1,920 Climbing Boston Center
06:42PM 44.0897 -75.3278 243° Southwest 327 376 24,200 1,260 Climbing Boston Center
06:43PM 44.0658 -75.4394 253° West 309 356 24,800 600 Climbing Boston Center
06:44PM 44.0414 -75.5797 256° West 323 372 25,400 540 Climbing Boston Center
06:45PM 44.0189 -75.7142 257° West 347 399 25,900 480 Climbing Boston Center
06:46PM 43.9939 -75.8572 256° West 363 418 26,400 480 Climbing Boston Center
06:47PM 43.9686 -76.0000 256° West 381 438 26,900 480 Climbing Boston Center
06:48PM 43.9472 -76.1517 259° West 395 455 27,400 420 Climbing Boston Center
06:49PM 43.9339 -76.3039 263° West 400 460 27,800 420 Climbing Boston Center
06:50PM 43.9203 -76.4558 263° West 405 466 28,300 600 Climbing Boston Center
06:51PM 43.9083 -76.6106 264° West 405 466 29,000 660 Climbing Boston Center
06:52PM 43.8922 -76.7653 262° West 405 466 29,700 660 Climbing Boston Center
06:53PM 43.8667 -76.9500 259° West 410 472 30,600 660 Climbing Toronto Center
06:54PM 43.8333 -77.1167 255° West 410 472 31,300 660 Climbing Toronto Center
06:55PM 43.8167 -77.2833 262° West 410 472 32,000 600 Climbing Toronto Center
06:56PM 43.8167 -77.4167 270° West 410 472 32,600 600 Climbing Toronto Center
06:57PM 43.8000 -77.6000 263° West 420 483 33,300 600 Climbing Toronto Center
06:58PM 43.7833 -77.7333 260° West 420 483 33,900 600 Climbing Toronto Center
06:59PM 43.7667 -77.9000 262° West 420 483 34,600 660 Climbing Toronto Center
07:00PM 43.7500 -78.0667 262° West 430 495 35,300 600 Climbing Toronto Center
07:01PM 43.7167 -78.2333 255° West 430 495 35,900 300 Climbing Toronto Center
07:02PM 43.7000 -78.4167 263° West 430 495 36,000  Climbing Toronto Center
07:03PM 43.7000 -78.5667 270° West 440 506 36,000  Level Toronto Center
07:04PM 43.6833 -78.7333 262° West 440 506 36,000  Level Toronto Center
07:05PM 43.6667 -78.9000 262° West 440 506 36,000  Level Toronto Center
07:06PM 43.6500 -79.0500 261° West 440 506 36,000  Level Toronto Center
07:07PM 43.6333 -79.2167 262° West 430 495 36,000  Level Toronto Center
07:08PM 43.6167 -79.3833 262° West 430 495 36,000  Level Toronto Center
07:09PM 43.6000 -79.5667 263° West 430 495 36,000  Level Toronto Center
07:10PM 43.5833 -79.7333 262° West 440 506 36,000  Level Toronto Center
07:11PM 43.5667 -79.8833 261° West 430 495 36,000  Level Toronto Center
07:12PM 43.5500 -80.0500 262° West 430 495 36,000  Level Toronto Center
07:13PM 43.5333 -80.2000 261° West 430 495 36,000  Level Toronto Center
07:14PM 43.5167 -80.3833 263° West 430 495 36,000  Level Toronto Center
07:15PM 43.5000 -80.5500 262° West 440 506 36,000  Level Toronto Center
07:16PM 43.4833 -80.7167 262° West 440 506 36,000  Level Toronto Center
07:17PM 43.4500 -80.8667 253° West 440 506 36,000  Level Toronto Center
07:18PM 43.4500 -81.0333 270° West 430 495 36,000  Level Toronto Center
07:19PM 43.5167 -81.1667 305° West 440 506 36,000  Level Toronto Center
07:20PM 43.6500 -81.2500 336° Northwest 440 506 36,000  Level Toronto Center
07:21PM 43.7500 -81.3000 340° North 440 506 36,000  Level Toronto Center
07:22PM 43.7833 -81.4500 287° West 430 495 36,000  Level Toronto Center
07:23PM 43.7333 -81.6167 248° West 430 495 36,000  Level Toronto Center
07:24PM 43.7000 -81.7833 255° West 430 495 36,000  Level Toronto Center
07:25PM 43.6667 -81.9167 251° West 430 495 36,000  Level Toronto Center
07:26PM 43.6000 -82.0667 238° Southwest 430 495 36,000  Level Toronto Center
07:27PM 43.5667 -82.2333 255° West 430 495 36,000  Level Toronto Center
07:28PM 43.5333 -82.3667 251° West 430 495 36,000  Level Toronto Center
07:29PM 43.4833 -82.5333 248° West 430 495 36,000  Level Toronto Center
07:30PM 43.4333 -82.6833 245° Southwest 430 495 36,000  Level Toronto Center
07:31PM 43.3833 -82.8500 248° West 440 506 36,000 -600 Level Toronto Center
07:32PM 43.3667 -83.0000 261° West 430 495 34,900 -1,020 Descending Toronto Center
07:33PM 43.3500 -83.1667 262° West 420 483 34,000 -480 Descending Toronto Center
07:34PM 43.3000 -83.3167 245° Southwest 430 495 34,000  Level Toronto Center
07:35PM 43.2833 -83.5000 263° West 440 506 34,000  Level Toronto Center
07:36PM 43.2667 -83.6333 260° West 430 495 34,000  Level Toronto Center
07:37PM 43.2333 -83.8167 256° West 430 495 34,000  Level Toronto Center
07:38PM 43.2000 -83.9833 255° West 440 506 34,000 -120 Level Toronto Center
07:39PM 43.1833 -84.1333 261° West 430 495 33,800 -600 Descending Toronto Center
07:40PM 43.1500 -84.3000 255° West 430 495 32,800 -900 Descending Toronto Center
07:41PM 43.1333 -84.4500 261° West 430 495 32,000 -420 Descending Toronto Center
07:42PM 43.1000 -84.6167 255° West 440 506 32,000  Level Toronto Center
07:43PM 43.0667 -84.7667 253° West 440 506 32,000  Level Toronto Center
07:44PM 43.0167 -84.9500 250° West 440 506 32,000  Level Toronto Center
07:45PM 43.0000 -85.1000 261° West 430 495 32,000 -540 Level Toronto Center
07:47PM 42.9606 -85.3150 256° West 450 518 30,700 -960 Descending Chicago Center
07:48PM 42.9086 -85.4725 246° West 455 524 29,600 -1,800 Descending Chicago Center
07:49PM 42.8464 -85.6622 246° West 455 524 27,100 -2,280 Descending Chicago Center
07:50PM 42.7964 -85.8172 246° West 446 513 24,900 -2,280 Descending Chicago Center
07:51PM 42.7467 -85.9661 246° West 431 496 22,500 -2,220 Descending Chicago Center
07:52PM 42.6997 -86.1086 246° West 414 476 20,400 -1,260 Descending Chicago Center
07:53PM 42.6536 -86.2492 246° West 406 467 20,000 -540 Descending Chicago Center
07:54PM 42.6217 -86.3944 253° West 403 464 19,400 -780 Descending Chicago Center
07:55PM 42.5939 -86.5439 256° West 409 471 18,400 -1,380 Descending Chicago Center
07:56PM 42.5628 -86.7128 256° West 395 455 16,600 -1,920 Descending Chicago Center
07:57PM 42.5272 -86.8514 251° West 379 436 14,500 -1,920 Descending Chicago Center
07:58PM 42.4914 -86.9794 249° West 366 421 12,600 -1,920 Descending Chicago Center
07:59PM 42.4572 -87.0989 249° West 343 395 10,600 -1,560 Descending Chicago Center
08:00PM 42.4292 -87.2033 250° West 299 344 9,400 -780 Descending Chicago Center
08:01PM 42.4006 -87.2983 248° West 279 321 9,000 -240 Descending Chicago Center
08:02PM 42.3475 -87.3947 233° Southwest 281 323 9,000  Level Chicago Center
08:03PM 42.3017 -87.4808 234° Southwest 283 326 9,000 -540 Level Chicago Center
08:04PM 42.2558 -87.5611 232° Southwest 275 316 8,000 -1,500 Descending Chicago Center
08:05PM 42.2058 -87.6561 235° Southwest 262 302 6,000 -1,680 Descending Chicago Center
08:06PM 42.1561 -87.7244 226° Southwest 260 299 4,600 -1,260 Descending Chicago Center
08:07PM 42.1008 -87.7839 219° Southwest 254 292 3,400 -1,200 Descending Chicago Center
08:08PM 42.0469 -87.8431 219° Southwest 254 292 2,100 -1,080 Descending Chicago Center
08:09PM 42.0136 -87.8792 219° Southwest 190 219 1,200 -900 Descending Chicago Center
08:11PM 41.9817 -87.9067 206° Southwest  Level Estimated